sensor_id;sensor_type;location;lat;lon;timestamp;pressure;altitude;pressure_sealevel;temperature
65180;BMP280;51849;47.476;8.084;2022-08-19T00:00:06;96234.22;;;19.34
65180;BMP280;51849;47.476;8.084;2022-08-19T00:02:33;96230.16;;;19.33
65180;BMP280;51849;47.476;8.084;2022-08-19T00:05:03;96227.34;;;19.31
65180;BMP280;51849;47.476;8.084;2022-08-19T00:07:29;96229.84;;;19.29
65180;BMP280;51849;47.476;8.084;2022-08-19T00:09:55;96225.22;;;19.37
65180;BMP280;51849;47.476;8.084;2022-08-19T00:12:22;96218.19;;;19.32
65180;BMP280;51849;47.476;8.084;2022-08-19T00:14:47;96217.53;;;19.24
65180;BMP280;51849;47.476;8.084;2022-08-19T00:17:13;96219.78;;;19.28
65180;BMP280;51849;47.476;8.084;2022-08-19T00:19:39;96221.16;;;19.36
65180;BMP280;51849;47.476;8.084;2022-08-19T00:22:07;96222.06;;;19.31
65180;BMP280;51849;47.476;8.084;2022-08-19T00:24:35;96216.75;;;19.31
65180;BMP280;51849;47.476;8.084;2022-08-19T00:27:02;96218.94;;;19.25
65180;BMP280;51849;47.476;8.084;2022-08-19T00:29:28;96222.63;;;19.30
65180;BMP280;51849;47.476;8.084;2022-08-19T00:31:54;96223.84;;;19.29
65180;BMP280;51849;47.476;8.084;2022-08-19T00:34:22;96231.06;;;19.28
65180;BMP280;51849;47.476;8.084;2022-08-19T00:36:48;96232.16;;;19.25
65180;BMP280;51849;47.476;8.084;2022-08-19T00:39:16;96239.16;;;19.30
65180;BMP280;51849;47.476;8.084;2022-08-19T00:41:44;96240.94;;;19.28
65180;BMP280;51849;47.476;8.084;2022-08-19T00:44:19;96242.53;;;19.31
65180;BMP280;51849;47.476;8.084;2022-08-19T00:46:47;96230.69;;;19.32
65180;BMP280;51849;47.476;8.084;2022-08-19T00:49:19;96234.44;;;19.29
65180;BMP280;51849;47.476;8.084;2022-08-19T00:51:48;96232.63;;;19.31
65180;BMP280;51849;47.476;8.084;2022-08-19T00:54:16;96224.69;;;19.31
65180;BMP280;51849;47.476;8.084;2022-08-19T00:56:42;96220.66;;;19.30
65180;BMP280;51849;47.476;8.084;2022-08-19T00:59:09;96215.94;;;19.29
65180;BMP280;51849;47.476;8.084;2022-08-19T01:01:43;96213.59;;;19.33
65180;BMP280;51849;47.476;8.084;2022-08-19T01:04:09;96208.81;;;19.31
65180;BMP280;51849;47.476;8.084;2022-08-19T01:06:40;96209.38;;;19.30
65180;BMP280;51849;47.476;8.084;2022-08-19T01:09:25;96208.50;;;19.27
65180;BMP280;51849;47.476;8.084;2022-08-19T01:11:54;96213.78;;;19.27
65180;BMP280;51849;47.476;8.084;2022-08-19T01:14:21;96204.63;;;19.28
65180;BMP280;51849;47.476;8.084;2022-08-19T01:16:46;96199.84;;;19.27
65180;BMP280;51849;47.476;8.084;2022-08-19T01:19:18;96207.09;;;19.26
65180;BMP280;51849;47.476;8.084;2022-08-19T01:21:55;96199.16;;;19.26
65180;BMP280;51849;47.476;8.084;2022-08-19T01:24:23;96191.22;;;19.26
65180;BMP280;51849;47.476;8.084;2022-08-19T01:26:49;96187.72;;;19.24
65180;BMP280;51849;47.476;8.084;2022-08-19T01:29:15;96183.97;;;19.27
65180;BMP280;51849;47.476;8.084;2022-08-19T01:31:42;96191.22;;;19.26
65180;BMP280;51849;47.476;8.084;2022-08-19T01:34:08;96192.16;;;19.21
65180;BMP280;51849;47.476;8.084;2022-08-19T01:36:42;96194.63;;;19.19
65180;BMP280;51849;47.476;8.084;2022-08-19T01:39:15;96192.47;;;19.25
65180;BMP280;51849;47.476;8.084;2022-08-19T01:41:43;96189.28;;;19.27
65180;BMP280;51849;47.476;8.084;2022-08-19T01:44:09;96196.69;;;19.28
65180;BMP280;51849;47.476;8.084;2022-08-19T01:46:37;96196.69;;;19.28
65180;BMP280;51849;47.476;8.084;2022-08-19T01:49:04;96200.22;;;19.31
65180;BMP280;51849;47.476;8.084;2022-08-19T01:51:31;96200.22;;;19.23
65180;BMP280;51849;47.476;8.084;2022-08-19T01:54:00;96198.16;;;19.14
65180;BMP280;51849;47.476;8.084;2022-08-19T01:56:32;96200.78;;;19.14
65180;BMP280;51849;47.476;8.084;2022-08-19T01:59:04;96194.94;;;19.23
65180;BMP280;51849;47.476;8.084;2022-08-19T02:01:31;96199.00;;;19.24
65180;BMP280;51849;47.476;8.084;2022-08-19T02:03:58;96199.16;;;19.26
65180;BMP280;51849;47.476;8.084;2022-08-19T02:06:26;96198.09;;;19.29
65180;BMP280;51849;47.476;8.084;2022-08-19T02:08:53;96202.31;;;19.32
65180;BMP280;51849;47.476;8.084;2022-08-19T02:11:22;96200.00;;;19.36
65180;BMP280;51849;47.476;8.084;2022-08-19T02:13:52;96202.81;;;19.38
65180;BMP280;51849;47.476;8.084;2022-08-19T02:16:19;96201.59;;;19.32
65180;BMP280;51849;47.476;8.084;2022-08-19T02:18:46;96193.13;;;19.33
65180;BMP280;51849;47.476;8.084;2022-08-19T02:21:15;96194.19;;;19.30
65180;BMP280;51849;47.476;8.084;2022-08-19T02:23:42;96193.03;;;19.16
65180;BMP280;51849;47.476;8.084;2022-08-19T02:26:08;96194.78;;;19.21
65180;BMP280;51849;47.476;8.084;2022-08-19T02:28:36;96197.06;;;19.25
65180;BMP280;51849;47.476;8.084;2022-08-19T02:31:09;96196.38;;;19.24
65180;BMP280;51849;47.476;8.084;2022-08-19T02:33:35;96202.34;;;19.25
65180;BMP280;51849;47.476;8.084;2022-08-19T02:36:04;96193.75;;;19.17
65180;BMP280;51849;47.476;8.084;2022-08-19T02:38:33;96187.75;;;19.16
65180;BMP280;51849;47.476;8.084;2022-08-19T02:41:03;96195.19;;;19.10
65180;BMP280;51849;47.476;8.084;2022-08-19T02:43:33;96189.88;;;19.10
65180;BMP280;51849;47.476;8.084;2022-08-19T02:46:12;96193.41;;;19.13
65180;BMP280;51849;47.476;8.084;2022-08-19T02:48:38;96197.09;;;19.17
65180;BMP280;51849;47.476;8.084;2022-08-19T02:51:05;96203.41;;;19.22
65180;BMP280;51849;47.476;8.084;2022-08-19T02:53:31;96210.38;;;19.02
65180;BMP280;51849;47.476;8.084;2022-08-19T02:55:59;96206.53;;;18.88
65180;BMP280;51849;47.476;8.084;2022-08-19T02:58:25;96218.31;;;18.95
65180;BMP280;51849;47.476;8.084;2022-08-19T03:00:56;96206.50;;;19.03
65180;BMP280;51849;47.476;8.084;2022-08-19T03:03:23;96209.28;;;19.05
65180;BMP280;51849;47.476;8.084;2022-08-19T03:05:49;96211.91;;;19.13
65180;BMP280;51849;47.476;8.084;2022-08-19T03:08:18;96217.03;;;19.11
65180;BMP280;51849;47.476;8.084;2022-08-19T03:10:48;96221.63;;;19.10
65180;BMP280;51849;47.476;8.084;2022-08-19T03:13:17;96222.50;;;19.05
65180;BMP280;51849;47.476;8.084;2022-08-19T03:15:45;96220.19;;;19.09
65180;BMP280;51849;47.476;8.084;2022-08-19T03:18:12;96229.22;;;19.06
65180;BMP280;51849;47.476;8.084;2022-08-19T03:20:44;96230.13;;;18.94
65180;BMP280;51849;47.476;8.084;2022-08-19T03:23:11;96233.81;;;18.98
65180;BMP280;51849;47.476;8.084;2022-08-19T03:25:47;96238.03;;;18.94
65180;BMP280;51849;47.476;8.084;2022-08-19T03:28:14;96235.41;;;18.94
65180;BMP280;51849;47.476;8.084;2022-08-19T03:30:43;96223.59;;;18.87
65180;BMP280;51849;47.476;8.084;2022-08-19T03:33:22;96224.31;;;18.95
65180;BMP280;51849;47.476;8.084;2022-08-19T03:36:21;96228.53;;;18.91
65180;BMP280;51849;47.476;8.084;2022-08-19T03:38:49;96218.88;;;18.86
65180;BMP280;51849;47.476;8.084;2022-08-19T03:41:19;96216.53;;;18.97
65180;BMP280;51849;47.476;8.084;2022-08-19T03:43:49;96214.28;;;18.86
65180;BMP280;51849;47.476;8.084;2022-08-19T03:46:18;96209.16;;;18.88
65180;BMP280;51849;47.476;8.084;2022-08-19T03:48:47;96212.00;;;18.90
65180;BMP280;51849;47.476;8.084;2022-08-19T03:51:20;96218.66;;;18.91
65180;BMP280;51849;47.476;8.084;2022-08-19T03:53:47;96209.88;;;18.89
65180;BMP280;51849;47.476;8.084;2022-08-19T03:56:14;96213.38;;;18.91
65180;BMP280;51849;47.476;8.084;2022-08-19T03:58:43;96224.31;;;18.95
65180;BMP280;51849;47.476;8.084;2022-08-19T04:01:16;96218.31;;;18.95
65180;BMP280;51849;47.476;8.084;2022-08-19T04:03:44;96218.84;;;18.93
65180;BMP280;51849;47.476;8.084;2022-08-19T04:06:15;96225.34;;;18.92
65180;BMP280;51849;47.476;8.084;2022-08-19T04:08:43;96224.31;;;18.95
65180;BMP280;51849;47.476;8.084;2022-08-19T04:11:14;96220.78;;;18.93
65180;BMP280;51849;47.476;8.084;2022-08-19T04:13:43;96219.75;;;18.88
65180;BMP280;51849;47.476;8.084;2022-08-19T04:16:10;96220.97;;;18.95
65180;BMP280;51849;47.476;8.084;2022-08-19T04:18:37;96232.56;;;18.99
65180;BMP280;51849;47.476;8.084;2022-08-19T04:21:05;96235.91;;;19.07
65180;BMP280;51849;47.476;8.084;2022-08-19T04:23:31;96237.44;;;19.18
65180;BMP280;51849;47.476;8.084;2022-08-19T04:25:59;96235.19;;;19.07
65180;BMP280;51849;47.476;8.084;2022-08-19T04:28:26;96239.47;;;19.02
65180;BMP280;51849;47.476;8.084;2022-08-19T04:30:53;96241.56;;;18.96
65180;BMP280;51849;47.476;8.084;2022-08-19T04:33:22;96247.75;;;18.99
65180;BMP280;51849;47.476;8.084;2022-08-19T04:35:51;96248.78;;;18.96
65180;BMP280;51849;47.476;8.084;2022-08-19T04:38:21;96249.69;;;18.91
65180;BMP280;51849;47.476;8.084;2022-08-19T04:40:51;96256.75;;;18.88
65180;BMP280;51849;47.476;8.084;2022-08-19T04:43:37;96254.25;;;18.83
65180;BMP280;51849;47.476;8.084;2022-08-19T04:46:07;96246.72;;;18.79
65180;BMP280;51849;47.476;8.084;2022-08-19T04:48:34;96248.28;;;18.82
65180;BMP280;51849;47.476;8.084;2022-08-19T04:51:06;96254.44;;;18.85
65180;BMP280;51849;47.476;8.084;2022-08-19T04:53:34;96258.50;;;18.86
65180;BMP280;51849;47.476;8.084;2022-08-19T04:56:06;96254.28;;;18.90
65180;BMP280;51849;47.476;8.084;2022-08-19T04:58:34;96256.75;;;18.88
65180;BMP280;51849;47.476;8.084;2022-08-19T05:01:04;96256.75;;;18.88
65180;BMP280;51849;47.476;8.084;2022-08-19T05:03:30;96259.56;;;18.98
65180;BMP280;51849;47.476;8.084;2022-08-19T05:06:05;96259.91;;;19.02
65180;BMP280;51849;47.476;8.084;2022-08-19T05:08:34;96259.56;;;18.98
65180;BMP280;51849;47.476;8.084;2022-08-19T05:11:12;96265.34;;;18.96
65180;BMP280;51849;47.476;8.084;2022-08-19T05:13:39;96267.28;;;18.96
65180;BMP280;51849;47.476;8.084;2022-08-19T05:16:05;96272.94;;;18.92
65180;BMP280;51849;47.476;8.084;2022-08-19T05:18:31;96275.78;;;18.87
65180;BMP280;51849;47.476;8.084;2022-08-19T05:21:19;96283.88;;;18.89
65180;BMP280;51849;47.476;8.084;2022-08-19T05:24:05;96284.94;;;18.78
65180;BMP280;51849;47.476;8.084;2022-08-19T05:26:38;96280.00;;;18.82
65180;BMP280;51849;47.476;8.084;2022-08-19T05:29:06;96277.69;;;18.86
65180;BMP280;51849;47.476;8.084;2022-08-19T05:31:32;96281.06;;;18.87
65180;BMP280;51849;47.476;8.084;2022-08-19T05:33:58;96285.81;;;18.81
65180;BMP280;51849;47.476;8.084;2022-08-19T05:36:27;96282.84;;;18.77
65180;BMP280;51849;47.476;8.084;2022-08-19T05:38:56;96284.41;;;18.80
65180;BMP280;51849;47.476;8.084;2022-08-19T05:41:22;96291.97;;;18.83
65180;BMP280;51849;47.476;8.084;2022-08-19T05:44:05;96297.25;;;18.83
65180;BMP280;51849;47.476;8.084;2022-08-19T05:46:35;96297.44;;;18.85
65180;BMP280;51849;47.476;8.084;2022-08-19T05:49:07;96299.03;;;18.88
65180;BMP280;51849;47.476;8.084;2022-08-19T05:51:36;96300.59;;;18.91
65180;BMP280;51849;47.476;8.084;2022-08-19T05:54:06;96297.78;;;18.89
65180;BMP280;51849;47.476;8.084;2022-08-19T05:56:33;96304.28;;;18.96
65180;BMP280;51849;47.476;8.084;2022-08-19T05:59:02;96298.66;;;18.99
65180;BMP280;51849;47.476;8.084;2022-08-19T06:01:32;96300.06;;;19.00
65180;BMP280;51849;47.476;8.084;2022-08-19T06:03:58;96294.41;;;18.96
65180;BMP280;51849;47.476;8.084;2022-08-19T06:06:24;96293.22;;;18.90
65180;BMP280;51849;47.476;8.084;2022-08-19T06:08:50;96290.91;;;18.79
65180;BMP280;51849;47.476;8.084;2022-08-19T06:11:41;96299.03;;;18.88
65180;BMP280;51849;47.476;8.084;2022-08-19T06:14:21;96295.16;;;18.89
65180;BMP280;51849;47.476;8.084;2022-08-19T06:16:49;96307.47;;;18.94
65180;BMP280;51849;47.476;8.084;2022-08-19T06:19:19;96306.75;;;19.01
65180;BMP280;51849;47.476;8.084;2022-08-19T06:21:47;96303.41;;;19.08
65180;BMP280;51849;47.476;8.084;2022-08-19T06:24:18;96303.78;;;18.97
65180;BMP280;51849;47.476;8.084;2022-08-19T06:26:46;96308.34;;;18.97
65180;BMP280;51849;47.476;8.084;2022-08-19T06:29:15;96316.66;;;18.86
65180;BMP280;51849;47.476;8.084;2022-08-19T06:31:47;96317.72;;;18.90
65180;BMP280;51849;47.476;8.084;2022-08-19T06:34:18;96319.28;;;19.01
65180;BMP280;51849;47.476;8.084;2022-08-19T06:36:48;96322.63;;;19.01
65180;BMP280;51849;47.476;8.084;2022-08-19T06:39:17;96313.47;;;19.02
65180;BMP280;51849;47.476;8.084;2022-08-19T06:41:47;96316.63;;;19.08
65180;BMP280;51849;47.476;8.084;2022-08-19T06:44:13;96315.38;;;19.09
65180;BMP280;51849;47.476;8.084;2022-08-19T06:46:45;96316.28;;;18.97
65180;BMP280;51849;47.476;8.084;2022-08-19T06:49:11;96318.06;;;18.87
65180;BMP280;51849;47.476;8.084;2022-08-19T06:51:44;96319.09;;;18.91
65180;BMP280;51849;47.476;8.084;2022-08-19T06:54:10;96321.72;;;18.91
65180;BMP280;51849;47.476;8.084;2022-08-19T06:56:37;96326.53;;;18.93
65180;BMP280;51849;47.476;8.084;2022-08-19T06:59:13;96326.84;;;18.89
65180;BMP280;51849;47.476;8.084;2022-08-19T07:01:47;96328.63;;;18.87
65180;BMP280;51849;47.476;8.084;2022-08-19T07:04:16;96327.56;;;18.97
65180;BMP280;51849;47.476;8.084;2022-08-19T07:06:42;96330.56;;;19.01
65180;BMP280;51849;47.476;8.084;2022-08-19T07:09:10;96334.78;;;19.12
65180;BMP280;51849;47.476;8.084;2022-08-19T07:11:36;96339.53;;;18.98
65180;BMP280;51849;47.476;8.084;2022-08-19T07:14:02;96336.03;;;19.03
65180;BMP280;51849;47.476;8.084;2022-08-19T07:16:29;96339.16;;;19.09
65180;BMP280;51849;47.476;8.084;2022-08-19T07:18:56;96338.81;;;19.05
65180;BMP280;51849;47.476;8.084;2022-08-19T07:21:24;96336.38;;;19.07
65180;BMP280;51849;47.476;8.084;2022-08-19T07:23:55;96336.91;;;18.98
65180;BMP280;51849;47.476;8.084;2022-08-19T07:26:31;96331.09;;;19.00
65180;BMP280;51849;47.476;8.084;2022-08-19T07:28:58;96333.19;;;19.01
65180;BMP280;51849;47.476;8.084;2022-08-19T07:31:26;96339.19;;;19.02
65180;BMP280;51849;47.476;8.084;2022-08-19T07:33:55;96340.25;;;18.99
65180;BMP280;51849;47.476;8.084;2022-08-19T07:36:28;96335.13;;;19.08
65180;BMP280;51849;47.476;8.084;2022-08-19T07:38:56;96335.13;;;19.01
65180;BMP280;51849;47.476;8.084;2022-08-19T07:41:25;96342.34;;;19.00
65180;BMP280;51849;47.476;8.084;2022-08-19T07:43:54;96346.59;;;19.03
65180;BMP280;51849;47.476;8.084;2022-08-19T07:46:20;96339.19;;;18.94
65180;BMP280;51849;47.476;8.084;2022-08-19T07:48:49;96343.41;;;19.05
65180;BMP280;51849;47.476;8.084;2022-08-19T07:51:19;96346.94;;;19.07
65180;BMP280;51849;47.476;8.084;2022-08-19T07:53:46;96350.81;;;19.14
65180;BMP280;51849;47.476;8.084;2022-08-19T07:56:13;96352.56;;;19.19
65180;BMP280;51849;47.476;8.084;2022-08-19T07:58:41;96343.06;;;19.16
65180;BMP280;51849;47.476;8.084;2022-08-19T08:01:13;96350.13;;;19.13
65180;BMP280;51849;47.476;8.084;2022-08-19T08:03:40;96346.22;;;19.14
65180;BMP280;51849;47.476;8.084;2022-08-19T08:06:24;96350.81;;;19.14
65180;BMP280;51849;47.476;8.084;2022-08-19T08:09:09;96354.34;;;19.24
65180;BMP280;51849;47.476;8.084;2022-08-19T08:11:51;96361.72;;;19.18
65180;BMP280;51849;47.476;8.084;2022-08-19T08:14:28;96353.25;;;19.34
65180;BMP280;51849;47.476;8.084;2022-08-19T08:16:56;96362.53;;;19.58
65180;BMP280;51849;47.476;8.084;2022-08-19T08:19:24;96360.78;;;19.53
65180;BMP280;51849;47.476;8.084;2022-08-19T08:21:51;96369.06;;;19.49
65180;BMP280;51849;47.476;8.084;2022-08-19T08:24:17;96370.66;;;19.52
65180;BMP280;51849;47.476;8.084;2022-08-19T08:26:43;96376.50;;;19.51
65180;BMP280;51849;47.476;8.084;2022-08-19T08:29:13;96378.06;;;19.54
65180;BMP280;51849;47.476;8.084;2022-08-19T08:31:43;96374.75;;;19.38
65180;BMP280;51849;47.476;8.084;2022-08-19T08:34:11;96380.41;;;19.35
65180;BMP280;51849;47.476;8.084;2022-08-19T08:36:40;96382.69;;;19.38
65180;BMP280;51849;47.476;8.084;2022-08-19T08:39:16;96384.44;;;19.36
65180;BMP280;51849;47.476;8.084;2022-08-19T08:42:09;96383.41;;;19.39
65180;BMP280;51849;47.476;8.084;2022-08-19T08:44:54;96389.22;;;19.37
65180;BMP280;51849;47.476;8.084;2022-08-19T08:47:35;96388.69;;;19.39
65180;BMP280;51849;47.476;8.084;2022-08-19T08:50:25;96394.34;;;19.35
65180;BMP280;51849;47.476;8.084;2022-08-19T08:52:57;96399.81;;;19.37
65180;BMP280;51849;47.476;8.084;2022-08-19T08:55:28;96401.72;;;19.44
65180;BMP280;51849;47.476;8.084;2022-08-19T08:58:05;96402.78;;;19.41
65180;BMP280;51849;47.476;8.084;2022-08-19T09:00:34;96411.25;;;19.47
65180;BMP280;51849;47.476;8.084;2022-08-19T09:03:01;96408.94;;;19.51
65180;BMP280;51849;47.476;8.084;2022-08-19T09:05:55;96421.13;;;19.47
65180;BMP280;51849;47.476;8.084;2022-08-19T09:11:11;96436.09;;;19.44
65180;BMP280;51849;47.476;8.084;2022-08-19T09:16:29;96434.00;;;19.50
65180;BMP280;51849;47.476;8.084;2022-08-19T09:19:00;96443.16;;;19.49
65180;BMP280;51849;47.476;8.084;2022-08-19T09:21:27;96442.09;;;19.52
65180;BMP280;51849;47.476;8.084;2022-08-19T09:23:53;96437.72;;;19.47
65180;BMP280;51849;47.476;8.084;2022-08-19T09:26:22;96444.41;;;19.48
65180;BMP280;51849;47.476;8.084;2022-08-19T09:28:51;96444.94;;;19.54
65180;BMP280;51849;47.476;8.084;2022-08-19T09:31:23;96444.56;;;19.58
65180;BMP280;51849;47.476;8.084;2022-08-19T09:33:50;96443.88;;;19.57
65180;BMP280;51849;47.476;8.084;2022-08-19T09:36:19;96444.94;;;19.54
65180;BMP280;51849;47.476;8.084;2022-08-19T09:38:45;96441.56;;;19.54
65180;BMP280;51849;47.476;8.084;2022-08-19T09:41:20;96445.28;;;19.58
65180;BMP280;51849;47.476;8.084;2022-08-19T09:43:51;96446.31;;;19.63
65180;BMP280;51849;47.476;8.084;2022-08-19T09:46:22;96448.09;;;19.68
65180;BMP280;51849;47.476;8.084;2022-08-19T09:48:49;96447.00;;;19.71
65180;BMP280;51849;47.476;8.084;2022-08-19T09:51:25;96451.22;;;19.74
65180;BMP280;51849;47.476;8.084;2022-08-19T09:53:52;96454.75;;;19.84
65180;BMP280;51849;47.476;8.084;2022-08-19T09:56:23;96452.41;;;19.95
65180;BMP280;51849;47.476;8.084;2022-08-19T09:58:49;96453.50;;;19.92
65180;BMP280;51849;47.476;8.084;2022-08-19T10:01:24;96459.63;;;20.02
65180;BMP280;51849;47.476;8.084;2022-08-19T10:03:53;96464.19;;;20.09
65180;BMP280;51849;47.476;8.084;2022-08-19T10:06:21;96472.31;;;20.11
65180;BMP280;51849;47.476;8.084;2022-08-19T10:08:48;96461.88;;;20.21
65180;BMP280;51849;47.476;8.084;2022-08-19T10:11:15;96469.47;;;20.17
65180;BMP280;51849;47.476;8.084;2022-08-19T10:13:43;96470.84;;;20.25
65180;BMP280;51849;47.476;8.084;2022-08-19T10:16:13;96471.38;;;20.24
65180;BMP280;51849;47.476;8.084;2022-08-19T10:18:40;96467.31;;;20.30
65180;BMP280;51849;47.476;8.084;2022-08-19T10:21:15;96464.81;;;20.32
65180;BMP280;51849;47.476;8.084;2022-08-19T10:23:44;96472.19;;;20.41
65180;BMP280;51849;47.476;8.084;2022-08-19T10:26:13;96471.69;;;20.35
65180;BMP280;51849;47.476;8.084;2022-08-19T10:28:40;96464.56;;;20.45
65180;BMP280;51849;47.476;8.084;2022-08-19T10:31:09;96464.59;;;20.38
65180;BMP280;51849;47.476;8.084;2022-08-19T10:33:36;96475.34;;;20.47
65180;BMP280;51849;47.476;8.084;2022-08-19T10:36:11;96468.81;;;20.48
65180;BMP280;51849;47.476;8.084;2022-08-19T10:38:37;96477.78;;;20.53
65180;BMP280;51849;47.476;8.084;2022-08-19T10:41:11;96472.28;;;20.58
65180;BMP280;51849;47.476;8.084;2022-08-19T10:43:38;96473.44;;;20.73
65180;BMP280;51849;47.476;8.084;2022-08-19T10:46:14;96473.44;;;20.73
65180;BMP280;51849;47.476;8.084;2022-08-19T10:48:42;96461.38;;;20.79
65180;BMP280;51849;47.476;8.084;2022-08-19T10:51:09;96467.00;;;20.83
65180;BMP280;51849;47.476;8.084;2022-08-19T10:53:54;96459.34;;;20.95
65180;BMP280;51849;47.476;8.084;2022-08-19T10:56:23;96457.31;;;21.03
65180;BMP280;51849;47.476;8.084;2022-08-19T10:59:09;96461.22;;;21.02
65180;BMP280;51849;47.476;8.084;2022-08-19T11:01:36;96460.59;;;21.11
65180;BMP280;51849;47.476;8.084;2022-08-19T11:04:03;96464.03;;;21.04
65180;BMP280;51849;47.476;8.084;2022-08-19T11:06:31;96467.84;;;21.10
65180;BMP280;51849;47.476;8.084;2022-08-19T11:08:57;96461.25;;;21.19
65180;BMP280;51849;47.476;8.084;2022-08-19T11:11:25;96466.75;;;21.21
65180;BMP280;51849;47.476;8.084;2022-08-19T11:13:51;96465.97;;;21.28
65180;BMP280;51849;47.476;8.084;2022-08-19T11:16:27;96470.50;;;21.35
65180;BMP280;51849;47.476;8.084;2022-08-19T11:18:58;96471.28;;;21.28
65180;BMP280;51849;47.476;8.084;2022-08-19T11:21:29;96473.31;;;21.37
65180;BMP280;51849;47.476;8.084;2022-08-19T11:24:02;96477.22;;;21.36
65180;BMP280;51849;47.476;8.084;2022-08-19T11:26:29;96475.34;;;21.29
65180;BMP280;51849;47.476;8.084;2022-08-19T11:28:57;96479.28;;;21.45
65180;BMP280;51849;47.476;8.084;2022-08-19T11:31:27;96483.47;;;21.48
65180;BMP280;51849;47.476;8.084;2022-08-19T11:33:53;96489.13;;;21.52
65180;BMP280;51849;47.476;8.084;2022-08-19T11:36:21;96484.09;;;21.39
65180;BMP280;51849;47.476;8.084;2022-08-19T11:38:48;96485.94;;;21.46
65180;BMP280;51849;47.476;8.084;2022-08-19T11:41:17;96481.63;;;21.41
65180;BMP280;51849;47.476;8.084;2022-08-19T11:43:43;96481.28;;;21.54
65180;BMP280;51849;47.476;8.084;2022-08-19T11:46:11;96492.22;;;21.58
65180;BMP280;51849;47.476;8.084;2022-08-19T11:48:38;96486.28;;;21.50
65180;BMP280;51849;47.476;8.084;2022-08-19T11:51:06;96481.22;;;21.44
65180;BMP280;51849;47.476;8.084;2022-08-19T11:53:34;96489.50;;;21.48
65180;BMP280;51849;47.476;8.084;2022-08-19T11:56:02;96486.50;;;21.27
65180;BMP280;51849;47.476;8.084;2022-08-19T11:58:28;96490.50;;;21.36
65180;BMP280;51849;47.476;8.084;2022-08-19T12:00:57;96492.34;;;21.26
65180;BMP280;51849;47.476;8.084;2022-08-19T12:03:24;96497.03;;;21.35
65180;BMP280;51849;47.476;8.084;2022-08-19T12:05:50;96493.09;;;21.43
65180;BMP280;51849;47.476;8.084;2022-08-19T12:08:16;96493.16;;;21.36
65180;BMP280;51849;47.476;8.084;2022-08-19T12:10:43;96498.50;;;21.28
65180;BMP280;51849;47.476;8.084;2022-08-19T12:13:09;96492.16;;;21.24
65180;BMP280;51849;47.476;8.084;2022-08-19T12:15:39;96499.69;;;21.35
65180;BMP280;51849;47.476;8.084;2022-08-19T12:18:08;96494.72;;;21.39
65180;BMP280;51849;47.476;8.084;2022-08-19T12:20:39;96489.63;;;21.33
65180;BMP280;51849;47.476;8.084;2022-08-19T12:23:08;96494.53;;;21.37
65180;BMP280;51849;47.476;8.084;2022-08-19T12:25:35;96489.88;;;21.45
65180;BMP280;51849;47.476;8.084;2022-08-19T12:28:05;96491.25;;;21.46
65180;BMP280;51849;47.476;8.084;2022-08-19T12:30:30;96489.00;;;21.42
65180;BMP280;51849;47.476;8.084;2022-08-19T12:32:56;96492.53;;;21.45
65180;BMP280;51849;47.476;8.084;2022-08-19T12:35:25;96492.84;;;21.49
65180;BMP280;51849;47.476;8.084;2022-08-19T12:37:50;96489.75;;;21.60
65180;BMP280;51849;47.476;8.084;2022-08-19T12:40:16;96494.75;;;21.56
65180;BMP280;51849;47.476;8.084;2022-08-19T12:42:44;96493.66;;;21.59
65180;BMP280;51849;47.476;8.084;2022-08-19T12:45:12;96498.47;;;21.53
65180;BMP280;51849;47.476;8.084;2022-08-19T12:47:39;96498.25;;;21.58
65180;BMP280;51849;47.476;8.084;2022-08-19T12:50:05;96501.53;;;21.66
65180;BMP280;51849;47.476;8.084;2022-08-19T12:52:36;96498.41;;;21.77
65180;BMP280;51849;47.476;8.084;2022-08-19T12:55:09;96497.47;;;21.65
65180;BMP280;51849;47.476;8.084;2022-08-19T12:57:36;96497.22;;;21.54
65180;BMP280;51849;47.476;8.084;2022-08-19T13:00:12;96508.72;;;21.56
65180;BMP280;51849;47.476;8.084;2022-08-19T13:02:42;96509.94;;;21.55
65180;BMP280;51849;47.476;8.084;2022-08-19T13:05:14;96503.88;;;21.62
65180;BMP280;51849;47.476;8.084;2022-08-19T13:07:41;96517.84;;;21.63
65180;BMP280;51849;47.476;8.084;2022-08-19T13:10:10;96507.75;;;21.61
65180;BMP280;51849;47.476;8.084;2022-08-19T13:12:38;96505.97;;;21.64
65180;BMP280;51849;47.476;8.084;2022-08-19T13:15:04;96505.66;;;21.60
65180;BMP280;51849;47.476;8.084;2022-08-19T13:17:33;96501.38;;;21.81
65180;BMP280;51849;47.476;8.084;2022-08-19T13:19:59;96505.84;;;21.96
65180;BMP280;51849;47.476;8.084;2022-08-19T13:22:25;96497.09;;;22.03
65180;BMP280;51849;47.476;8.084;2022-08-19T13:24:50;96500.44;;;22.20
65180;BMP280;51849;47.476;8.084;2022-08-19T13:27:16;96494.63;;;22.31
65180;BMP280;51849;47.476;8.084;2022-08-19T13:29:44;96502.97;;;22.45
65180;BMP280;51849;47.476;8.084;2022-08-19T13:32:30;96497.53;;;22.79
65180;BMP280;51849;47.476;8.084;2022-08-19T13:35:16;96503.50;;;23.06
65180;BMP280;51849;47.476;8.084;2022-08-19T13:37:44;96497.50;;;23.15
65180;BMP280;51849;47.476;8.084;2022-08-19T13:40:20;96496.22;;;23.16
65180;BMP280;51849;47.476;8.084;2022-08-19T13:42:51;96503.50;;;23.06
65180;BMP280;51849;47.476;8.084;2022-08-19T13:45:19;96505.56;;;22.98
65180;BMP280;51849;47.476;8.084;2022-08-19T13:47:47;96503.22;;;22.75
65180;BMP280;51849;47.476;8.084;2022-08-19T13:50:19;96512.38;;;22.82
65180;BMP280;51849;47.476;8.084;2022-08-19T13:52:48;96513.09;;;22.56
65180;BMP280;51849;47.476;8.084;2022-08-19T13:55:14;96514.75;;;22.34
65180;BMP280;51849;47.476;8.084;2022-08-19T13:57:41;96512.88;;;22.18
65180;BMP280;51849;47.476;8.084;2022-08-19T14:00:09;96523.94;;;22.24
65180;BMP280;51849;47.476;8.084;2022-08-19T14:02:37;96526.16;;;22.18
65180;BMP280;51849;47.476;8.084;2022-08-19T14:05:06;96521.31;;;22.07
65180;BMP280;51849;47.476;8.084;2022-08-19T14:07:32;96526.75;;;22.09
65180;BMP280;51849;47.476;8.084;2022-08-19T14:09:58;96520.50;;;21.97
65180;BMP280;51849;47.476;8.084;2022-08-19T14:12:26;96534.72;;;21.75
65180;BMP280;51849;47.476;8.084;2022-08-19T14:14:52;96525.56;;;21.51
65180;BMP280;51849;47.476;8.084;2022-08-19T14:17:20;96534.88;;;21.35
65180;BMP280;51849;47.476;8.084;2022-08-19T14:19:49;96531.72;;;21.12
65180;BMP280;51849;47.476;8.084;2022-08-19T14:22:14;96534.41;;;21.05
65180;BMP280;51849;47.476;8.084;2022-08-19T14:24:40;96524.38;;;20.96
65180;BMP280;51849;47.476;8.084;2022-08-19T14:27:06;96523.19;;;20.89